Latest Coastal Weather Observations for Maria Island

IDT60701

Issued at 7:22 am EST Wednesday 3 June 2020 (issued every 10 minutes, with the page automatically refreshed every 10 minutes)

About coastal observations | Map of coastal stations | Coastal observations for TAS | Marine services | Other Formats
Station Details ID: 092124 Name: MARIA ISLAND (POINT LESUEUR) Lat: -42.66 Lon: 148.02 Height: 28.0 m
Data from the previous 72 hours. | See also: Recent months at Maria Island
Date/Time
EST
Wind Sea
Height
m
Swell Vis
km
Cloud Weather Temp
°C
Press
hPa
Rain since
9am
mm
Dir  Spd
kts
Gust
kts
Height
m
Period
s
Dir
03/07:14am SW 24 34 - - - - - - - 8.2 1021.3 1.4
03/07:00am SW 29 34 - - - - - - - 7.9 1021.0 1.4
03/06:30am SSW 28 33 - - - - - - - 8.8 1020.3 1.2
03/06:00am SW 27 34 - - - - - - - 8.3 1019.6 1.2
03/05:42am SW 23 33 - - - - - - - 9.1 1019.0 1.2
03/05:30am SSW 24 32 - - - - - - - 9.1 1018.8 1.2
03/05:00am SW 30 37 - - - - - - - 8.7 1017.8 1.2
03/04:30am SSW 26 32 - - - - - - - 8.6 1017.4 1.2
03/04:10am SSW 26 36 - - - - - - - 8.8 1016.8 0.8
03/04:00am SW 24 30 - - - - - - - 9.1 1016.3 0.6
03/03:30am SSW 27 42 - - - - - - - 9.4 1015.5 0.6
03/03:25am SSW 24 38 - - - - - - - 9.5 1015.6 0.6
03/03:04am SSW 32 49 - - - - - - - 8.3 1015.1 0.6
03/03:00am SSW 36 49 - - - - - - Rain 7.8 1014.9 0.6
03/02:52am SW 34 44 - - - - - - - 8.3 1014.6 0.4
03/02:30am SSW 30 40 - - - - - - - 9.5 1013.9 0.4
03/02:26am SSW 27 38 - - - - - - - 9.5 1013.7 0.4
03/02:00am SW 30 38 - - - - - - - 9.5 1012.7 0.4
03/01:41am SW 30 40 - - - - - - - 9.5 1012.4 0.2
03/01:30am SW 28 35 - - - - - - - 9.4 1012.4 0.2
03/01:00am SSW 28 34 - - - - - - - 9.9 1012.0 0.0
03/12:52am SW 21 34 - - - - - - - 10.4 1011.8 0.0
03/12:30am SW 16 22 - - - - - - - 10.5 1011.3 0.0
03/12:00am SW 19 28 - - - - - - - 10.2 1011.0 0.0
 
Date/Time
EST
Wind Sea
Height
m
Swell Vis
km
Cloud Weather Temp
°C
Press
hPa
Rain since
9am
mm
Dir  Spd
kts
Gust
kts
Height
m
Period
s
Dir
02/11:49pm SW 15 28 - - - - - - - 10.7 1010.9 0.0
02/11:30pm SW 11 16 - - - - - - - 10.9 1010.5 0.0
02/11:00pm WSW 12 18 - - - - - - - 10.7 1010.1 0.0
02/10:30pm SW 17 23 - - - - - - - 10.9 1009.1 0.0
02/10:00pm SW 18 21 - - - - - - - 11.1 1008.9 0.0
02/09:30pm SW 12 16 - - - - - - - 10.8 1008.6 0.0
02/09:00pm WSW 17 20 - - - - - - - 10.8 1007.9 0.0
02/08:30pm SSW 16 17 - - - - - - - 12.2 1007.3 0.0
02/08:00pm WSW 9 13 - - - - - - - 12.7 1007.1 0.0
02/07:30pm W 15 20 - - - - - - - 13.0 1006.1 0.0
02/07:00pm WSW 21 26 - - - - - - - 13.1 1005.7 0.0
02/06:39pm WSW 18 29 - - - - - - - 13.7 1005.1 0.0
02/06:30pm WSW 20 28 - - - - - - - 13.9 1005.0 0.0
02/06:22pm WSW 6 21 - - - - - - - 13.8 1004.9 0.0
02/06:00pm NNW 6 7 - - - - - - - 13.8 1004.8 0.0
02/05:30pm NW 10 13 - - - - - - - 14.0 1004.6 0.0
02/05:00pm N 16 21 - - - - - - - 14.1 1003.9 0.0
02/04:30pm N 18 22 - - - - - - - 13.7 1003.7 0.0
02/04:00pm N 19 22 - - - - - - - 13.6 1003.5 0.0
02/03:30pm N 20 24 - - - - - - - 13.7 1003.2 0.0
02/03:00pm N 15 18 - - - - - - - 13.7 1004.5 0.0
02/02:30pm N 15 16 - - - - - - - 13.5 1004.3 0.0
02/02:00pm N 17 21 - - - - - - - 14.4 1004.3 0.0
02/01:30pm NNW 16 20 - - - - - - - 14.9 1004.5 0.0
02/01:00pm NNW 18 21 - - - - - - - 13.5 1005.0 0.0
02/12:30pm NNW 18 21 - - - - - - - 13.7 1005.8 0.0
02/12:00pm NNW 13 16 - - - - - - - 14.2 1006.9 0.0
02/11:30am N 17 21 - - - - - - - 13.6 1006.5 0.0
02/11:00am N 17 23 - - - - - - - 12.6 1007.0 0.0
02/10:30am N 17 20 - - - - - - - 11.9 1007.1 0.0
02/10:00am N 20 23 - - - - - - - 11.6 1007.2 0.0
02/09:30am N 20 25 - - - - - - - 10.9 1007.1 0.0
02/09:00am N 20 22 - - - - - - - 10.9 1007.6 0.0
02/08:30am N 17 22 - - - - - - - 10.8 1007.8 0.0
02/08:00am NNW 16 19 - - - - - - - 10.9 1007.8 0.0
02/07:30am NNW 17 20 - - - - - - - 10.7 1007.6 0.0
02/07:00am NNW 17 20 - - - - - - - 10.5 1007.2 0.0
02/06:30am NNW 15 19 - - - - - - - 10.4 1007.3 0.0
02/06:00am NNW 13 15 - - - - - - - 10.2 1007.2 0.0
02/05:30am NNW 13 18 - - - - - - - 10.1 1007.1 0.0
02/05:00am NNW 10 13 - - - - - - - 9.8 1007.2 0.0
02/04:30am N 10 12 - - - - - - - 9.3 1007.4 0.0
02/04:00am N 10 12 - - - - - - - 9.2 1007.6 0.0
02/03:30am N 10 12 - - - - - - - 8.8 1007.8 0.0
02/03:00am NW 12 15 - - - - - - - 8.6 1007.9 0.0
02/02:30am NNW 11 14 - - - - - - - 8.5 1008.2 0.0
02/02:00am NW 9 12 - - - - - - - 8.3 1008.2 0.0
02/01:30am NW 8 12 - - - - - - - 8.3 1008.4 0.0
02/01:00am WNW 13 15 - - - - - - - 8.3 1008.1 0.0
02/12:30am WNW 15 17 - - - - - - - 8.3 1008.2 0.0
02/12:00am WNW 11 13 - - - - - - - 8.9 1008.4 0.0
 
Date/Time
EST
Wind Sea
Height
m
Swell Vis
km
Cloud Weather Temp
°C
Press
hPa
Rain since
9am
mm
Dir  Spd
kts
Gust
kts
Height
m
Period
s
Dir
01/11:30pm W 9 13 - - - - - - - 9.6 1008.5 0.0
01/11:00pm NW 6 8 - - - - - - - 9.8 1008.0 0.0
01/10:30pm W 7 8 - - - - - - - 10.3 1008.2 0.0
01/10:00pm SSW 6 9 - - - - - - - 10.2 1008.0 0.0
01/09:30pm S 8 11 - - - - - - - 9.8 1007.6 0.0
01/09:00pm S 13 16 - - - - - - - 10.2 1007.3 0.0
01/08:30pm S 16 18 - - - - - - - 10.1 1007.0 0.0
01/08:00pm S 14 17 - - - - - - - 10.3 1006.5 0.0
01/07:30pm S 10 13 - - - - - - - 10.4 1006.2 0.0
01/07:00pm S 11 14 - - - - - - - 10.7 1005.8 0.0
01/06:30pm S 15 18 - - - - - - - 10.9 1005.3 0.0
01/06:00pm SSW 19 23 - - - - - - - 11.2 1004.8 0.0
01/05:30pm SSW 16 28 - - - - - - - 11.4 1004.2 0.0
01/05:28pm SW 12 28 - - - - - - - 11.6 1004.1 0.0
01/05:00pm NNW 12 13 - - - - - - - 13.3 1003.4 0.0
01/04:30pm N 11 12 - - - - - - - 13.4 1002.8 0.0
01/04:00pm N 7 9 - - - - - - - 13.9 1002.7 0.0
01/03:30pm N 7 9 - - - - - - - 14.2 1002.6 0.0
01/03:00pm N 10 11 - - - - - - - 13.9 1002.3 0.0
01/02:30pm N 10 12 - - - - - - - 14.5 1002.1 0.0
01/02:00pm NNW 10 11 - - - - - - - 14.5 1001.8 0.0
01/01:30pm N 13 14 - - - - - - - 13.8 1001.6 0.0
01/01:00pm NNW 15 18 - - - - - - - 14.7 1001.8 0.0
01/12:30pm N 16 19 - - - - - - - 14.4 1001.7 0.0
01/12:00pm N 13 15 - - - - - - - 13.5 1001.8 0.0
01/11:30am N 15 19 - - - - - - - 13.4 1001.9 0.0
01/11:00am N 15 17 - - - - - - - 13.5 1002.0 0.0
01/10:30am N 14 16 - - - - - - - 13.0 1002.2 0.0
01/10:00am N 14 16 - - - - - - - 12.9 1002.0 0.0
01/09:30am N 15 17 - - - - - - - 12.4 1002.1 0.0
01/09:00am N 15 17 - - - - - - - 12.1 1001.8 0.0
01/08:30am N 15 17 - - - - - - - 11.7 1001.6 0.0
01/08:00am N 15 19 - - - - - - - 11.3 1001.5 0.0
01/07:30am N 18 20 - - - - - - - 11.3 1001.3 0.0
01/07:00am N 15 18 - - - - - - - 11.4 1001.1 0.0
01/06:30am N 17 21 - - - - - - - 11.5 1000.9 0.0
01/06:00am N 17 19 - - - - - - - 11.6 1000.7 0.0
01/05:30am N 15 18 - - - - - - - 11.7 1000.9 0.0
01/05:00am N 14 16 - - - - - - - 11.7 1001.0 0.0
01/04:30am N 14 17 - - - - - - - 11.7 1000.9 0.0
01/04:00am N 14 16 - - - - - - - 11.5 1001.1 0.0
01/03:30am N 17 20 - - - - - - - 11.5 1001.1 0.0
01/03:00am N 20 22 - - - - - - - 11.4 1001.2 0.0
01/02:30am N 17 19 - - - - - - - 11.2 1001.5 0.0
01/02:00am N 20 23 - - - - - - - 11.2 1001.4 0.0
01/01:30am N 21 25 - - - - - - - 11.2 1001.7 0.0
01/01:00am N 20 25 - - - - - - - 11.3 1001.9 0.0
01/12:30am NNW 18 21 - - - - - - - 11.2 1002.3 0.0
01/12:00am N 19 26 - - - - - - - 11.2 1002.4 0.0
 
Date/Time
EST
Wind Sea
Height
m
Swell Vis
km
Cloud Weather Temp
°C
Press
hPa
Rain since
9am
mm
Dir  Spd
kts
Gust
kts
Height
m
Period
s
Dir
31/11:30pm N 18 22 - - - - - - - 11.1 1003.0 0.0
31/11:00pm N 17 19 - - - - - - - 11.3 1003.2 0.0
31/10:30pm NNW 16 19 - - - - - - - 11.4 1003.5 0.0
31/10:00pm N 18 20 - - - - - - - 11.4 1003.9 0.0
31/09:30pm N 16 19 - - - - - - - 11.5 1004.1 0.0
31/09:00pm N 17 19 - - - - - - - 11.3 1004.5 0.0
31/08:30pm NNW 19 22 - - - - - - - 11.3 1004.6 0.0
31/08:00pm NNW 19 22 - - - - - - - 11.5 1004.6 0.0
31/07:30pm NW 14 19 - - - - - - - 11.5 1004.5 0.0
31/07:00pm NNW 12 15 - - - - - - - 11.5 1004.8 0.0
31/06:30pm NNW 13 17 - - - - - - - 12.1 1004.8 0.0
31/06:00pm NNW 12 14 - - - - - - - 12.2 1004.8 0.0
31/05:30pm NNW 16 17 - - - - - - - 12.4 1004.4 0.0
31/05:00pm NNW 15 18 - - - - - - - 12.8 1004.5 0.0
31/04:30pm NNW 18 21 - - - - - - - 13.2 1004.3 0.0
31/04:00pm N 15 18 - - - - - - - 13.4 1004.2 0.0
31/03:30pm N 17 20 - - - - - - - 13.3 1004.2 0.0
31/03:00pm N 18 21 - - - - - - - 13.2 1004.2 0.0
31/02:30pm N 18 21 - - - - - - - 13.2 1004.3 0.0
31/02:00pm N 15 17 - - - - - - - 13.5 1004.3 0.0
31/01:30pm NNW 15 18 - - - - - - - 13.5 1004.6 0.0
31/01:00pm NNW 17 21 - - - - - - - 13.6 1004.9 0.0
31/12:30pm NNW 17 20 - - - - - - - 13.6 1005.3 0.0
31/12:00pm NW 18 21 - - - - - - - 13.9 1005.4 0.0
31/11:30am NW 15 18 - - - - - - - 13.9 1005.9 0.0
31/11:00am NW 15 17 - - - - - - - 14.3 1006.1 0.0
31/10:30am NW 15 17 - - - - - - - 14.2 1006.0 0.0
31/10:00am NW 13 16 - - - - - - - 13.9 1006.4 0.0
31/09:30am WNW 8 11 - - - - - - - 13.8 1006.5 0.0
31/09:00am WNW 10 13 - - - - - - - 13.4 1006.5 0.0
31/08:30am WNW 14 20 - - - - - - - 13.0 1006.1 0.0
31/08:00am WNW 13 17 - - - - - - - 12.6 1005.6 0.0
31/07:30am NW 16 20 - - - - - - - 13.0 1004.9 0.0

Other formats

Comma delimited format used in spreadsheet applications
http://www.bom.gov.au/fwo/IDT60701/IDT60701.95988.axf

JavaScript Object Notation format (JSON) in row-major order
http://www.bom.gov.au/fwo/IDT60701/IDT60701.95988.json

Data quality

Most of these data are generated automatically and are frequently updated. Quality checks on data are not normally performed. It is possible for incorrect values to appear. Refer to information at About Latest Weather Observations and please check the disclaimer before using these data.